sensor_id;sensor_type;location;lat;lon;timestamp;pressure;altitude;pressure_sealevel;temperature;humidity
8416;BME280;4245;42.120;24.732;2022-08-16T00:02:07;98664.06;;;24.07;87.35
8416;BME280;4245;42.120;24.732;2022-08-16T00:04:34;98663.66;;;23.97;87.57
8416;BME280;4245;42.120;24.732;2022-08-16T00:07:01;98659.69;;;23.93;88.50
8416;BME280;4245;42.120;24.732;2022-08-16T00:09:28;98658.44;;;23.89;88.47
8416;BME280;4245;42.120;24.732;2022-08-16T00:11:55;98660.31;;;23.95;88.37
8416;BME280;4245;42.120;24.732;2022-08-16T00:14:25;98653.22;;;23.87;88.78
8416;BME280;4245;42.120;24.732;2022-08-16T00:16:53;98650.72;;;23.86;88.70
8416;BME280;4245;42.120;24.732;2022-08-16T00:19:22;98652.19;;;23.81;88.98
8416;BME280;4245;42.120;24.732;2022-08-16T00:21:50;98661.34;;;23.74;89.95
8416;BME280;4245;42.120;24.732;2022-08-16T00:24:18;98670.56;;;23.86;88.88
8416;BME280;4245;42.120;24.732;2022-08-16T00:26:45;98673.25;;;23.86;89.48
8416;BME280;4245;42.120;24.732;2022-08-16T00:29:14;98669.69;;;23.92;89.86
8416;BME280;4245;42.120;24.732;2022-08-16T00:31:42;98672.00;;;23.75;90.09
8416;BME280;4245;42.120;24.732;2022-08-16T00:34:10;98672.59;;;23.64;90.78
8416;BME280;4245;42.120;24.732;2022-08-16T00:36:37;98677.97;;;23.58;92.42
8416;BME280;4245;42.120;24.732;2022-08-16T00:39:04;98682.16;;;23.54;93.37
8416;BME280;4245;42.120;24.732;2022-08-16T00:41:31;98693.00;;;23.54;93.53
8416;BME280;4245;42.120;24.732;2022-08-16T00:44:02;98696.56;;;23.61;94.13
8416;BME280;4245;42.120;24.732;2022-08-16T00:46:38;98692.34;;;23.45;95.69
8416;BME280;4245;42.120;24.732;2022-08-16T00:49:10;98683.78;;;23.42;96.09
8416;BME280;4245;42.120;24.732;2022-08-16T00:51:38;98676.41;;;23.29;96.84
8416;BME280;4245;42.120;24.732;2022-08-16T00:54:05;98678.94;;;23.30;96.00
8416;BME280;4245;42.120;24.732;2022-08-16T00:56:35;98682.66;;;23.29;97.07
8416;BME280;4245;42.120;24.732;2022-08-16T00:59:04;98677.91;;;23.31;97.44
8416;BME280;4245;42.120;24.732;2022-08-16T01:01:31;98681.63;;;23.30;98.08
8416;BME280;4245;42.120;24.732;2022-08-16T01:03:59;98682.94;;;23.41;97.41
8416;BME280;4245;42.120;24.732;2022-08-16T01:06:27;98692.47;;;23.30;98.19
8416;BME280;4245;42.120;24.732;2022-08-16T01:08:55;98689.56;;;23.32;98.64
8416;BME280;4245;42.120;24.732;2022-08-16T01:11:24;98685.41;;;23.36;97.93
8416;BME280;4245;42.120;24.732;2022-08-16T01:13:54;98686.25;;;23.36;98.21
8416;BME280;4245;42.120;24.732;2022-08-16T01:16:23;98681.88;;;23.35;98.11
8416;BME280;4245;42.120;24.732;2022-08-16T01:18:55;98682.28;;;23.32;97.89
8416;BME280;4245;42.120;24.732;2022-08-16T01:21:30;98679.38;;;23.40;96.73
8416;BME280;4245;42.120;24.732;2022-08-16T01:24:16;98678.50;;;23.33;97.33
8416;BME280;4245;42.120;24.732;2022-08-16T01:26:47;98679.75;;;23.31;96.82
8416;BME280;4245;42.120;24.732;2022-08-16T01:29:16;98687.69;;;23.32;96.47
8416;BME280;4245;42.120;24.732;2022-08-16T01:31:44;98694.16;;;23.31;96.66
8416;BME280;4245;42.120;24.732;2022-08-16T01:34:12;98688.09;;;23.29;96.54
8416;BME280;4245;42.120;24.732;2022-08-16T01:36:39;98696.44;;;23.34;95.90
8416;BME280;4245;42.120;24.732;2022-08-16T01:39:13;98700.78;;;23.29;96.25
8416;BME280;4245;42.120;24.732;2022-08-16T01:41:40;98704.16;;;23.31;95.80
8416;BME280;4245;42.120;24.732;2022-08-16T01:44:08;98698.53;;;23.39;96.83
8416;BME280;4245;42.120;24.732;2022-08-16T01:46:38;98697.72;;;23.38;96.26
8416;BME280;4245;42.120;24.732;2022-08-16T01:49:14;98704.97;;;23.25;96.88
8416;BME280;4245;42.120;24.732;2022-08-16T01:51:44;98715.94;;;23.04;98.17
8416;BME280;4245;42.120;24.732;2022-08-16T01:54:12;98712.28;;;22.90;99.47
8416;BME280;4245;42.120;24.732;2022-08-16T01:56:39;98712.53;;;22.95;99.44
8416;BME280;4245;42.120;24.732;2022-08-16T01:59:09;98708.16;;;22.94;99.68
8416;BME280;4245;42.120;24.732;2022-08-16T02:01:36;98713.59;;;22.94;99.31
8416;BME280;4245;42.120;24.732;2022-08-16T02:04:03;98703.59;;;22.94;99.66
8416;BME280;4245;42.120;24.732;2022-08-16T02:06:31;98712.31;;;22.96;99.90
8416;BME280;4245;42.120;24.732;2022-08-16T02:08:59;98714.97;;;22.83;100.00
8416;BME280;4245;42.120;24.732;2022-08-16T02:11:27;98717.03;;;22.53;100.00
8416;BME280;4245;42.120;24.732;2022-08-16T02:13:54;98723.19;;;22.41;100.00
8416;BME280;4245;42.120;24.732;2022-08-16T02:16:21;98714.00;;;22.42;100.00
8416;BME280;4245;42.120;24.732;2022-08-16T02:18:48;98718.03;;;22.46;100.00
8416;BME280;4245;42.120;24.732;2022-08-16T02:21:15;98723.97;;;22.35;100.00
8416;BME280;4245;42.120;24.732;2022-08-16T02:23:43;98721.16;;;22.22;100.00
8416;BME280;4245;42.120;24.732;2022-08-16T02:26:11;98727.53;;;22.14;100.00
8416;BME280;4245;42.120;24.732;2022-08-16T02:28:41;98726.00;;;22.05;100.00
8416;BME280;4245;42.120;24.732;2022-08-16T02:31:10;98723.44;;;21.97;100.00
8416;BME280;4245;42.120;24.732;2022-08-16T02:33:37;98712.72;;;22.10;100.00
8416;BME280;4245;42.120;24.732;2022-08-16T02:36:05;98719.56;;;22.06;100.00
8416;BME280;4245;42.120;24.732;2022-08-16T02:38:32;98711.94;;;22.16;100.00
8416;BME280;4245;42.120;24.732;2022-08-16T02:41:00;98709.34;;;22.08;100.00
8416;BME280;4245;42.120;24.732;2022-08-16T02:43:30;98711.66;;;21.90;100.00
8416;BME280;4245;42.120;24.732;2022-08-16T02:45:59;98721.25;;;21.71;100.00
8416;BME280;4245;42.120;24.732;2022-08-16T02:48:27;98722.00;;;21.44;100.00
8416;BME280;4245;42.120;24.732;2022-08-16T02:50:55;98723.50;;;21.67;100.00
8416;BME280;4245;42.120;24.732;2022-08-16T02:53:22;98715.25;;;21.76;100.00
8416;BME280;4245;42.120;24.732;2022-08-16T02:55:49;98716.91;;;21.55;100.00
8416;BME280;4245;42.120;24.732;2022-08-16T02:58:16;98714.69;;;21.59;100.00
8416;BME280;4245;42.120;24.732;2022-08-16T03:00:43;98710.88;;;21.75;100.00
8416;BME280;4245;42.120;24.732;2022-08-16T03:03:11;98713.41;;;21.76;100.00
8416;BME280;4245;42.120;24.732;2022-08-16T03:05:38;98718.22;;;21.81;100.00
8416;BME280;4245;42.120;24.732;2022-08-16T03:08:05;98707.84;;;21.84;100.00
8416;BME280;4245;42.120;24.732;2022-08-16T03:10:33;98707.41;;;21.81;100.00
8416;BME280;4245;42.120;24.732;2022-08-16T03:13:01;98717.91;;;21.90;100.00
8416;BME280;4245;42.120;24.732;2022-08-16T03:15:29;98722.78;;;21.95;100.00
8416;BME280;4245;42.120;24.732;2022-08-16T03:17:56;98722.38;;;21.98;100.00
8416;BME280;4245;42.120;24.732;2022-08-16T03:20:24;98737.31;;;21.94;100.00
8416;BME280;4245;42.120;24.732;2022-08-16T03:22:51;98734.78;;;21.92;100.00
8416;BME280;4245;42.120;24.732;2022-08-16T03:25:18;98733.84;;;22.00;100.00
8416;BME280;4245;42.120;24.732;2022-08-16T03:27:45;98736.63;;;22.06;100.00
8416;BME280;4245;42.120;24.732;2022-08-16T03:30:14;98747.69;;;22.12;100.00
8416;BME280;4245;42.120;24.732;2022-08-16T03:32:41;98740.03;;;22.15;100.00
8416;BME280;4245;42.120;24.732;2022-08-16T03:35:09;98746.72;;;22.19;100.00
8416;BME280;4245;42.120;24.732;2022-08-16T03:37:37;98747.75;;;22.18;100.00
8416;BME280;4245;42.120;24.732;2022-08-16T03:40:09;98756.59;;;22.27;100.00
8416;BME280;4245;42.120;24.732;2022-08-16T03:42:36;98754.31;;;22.30;100.00
8416;BME280;4245;42.120;24.732;2022-08-16T03:45:03;98764.94;;;22.32;100.00
8416;BME280;4245;42.120;24.732;2022-08-16T03:47:30;98766.03;;;22.37;100.00
8416;BME280;4245;42.120;24.732;2022-08-16T03:49:59;98762.94;;;22.40;100.00
8416;BME280;4245;42.120;24.732;2022-08-16T03:52:26;98756.09;;;22.44;100.00
8416;BME280;4245;42.120;24.732;2022-08-16T03:54:54;98766.34;;;22.49;100.00
8416;BME280;4245;42.120;24.732;2022-08-16T03:57:21;98763.19;;;22.45;100.00
8416;BME280;4245;42.120;24.732;2022-08-16T03:59:47;98772.41;;;22.51;100.00
8416;BME280;4245;42.120;24.732;2022-08-16T04:02:14;98766.00;;;22.59;100.00
8416;BME280;4245;42.120;24.732;2022-08-16T04:04:43;98765.47;;;22.70;100.00
8416;BME280;4245;42.120;24.732;2022-08-16T04:07:11;98761.47;;;22.66;100.00
8416;BME280;4245;42.120;24.732;2022-08-16T04:09:38;98763.13;;;22.67;100.00
8416;BME280;4245;42.120;24.732;2022-08-16T04:12:07;98755.94;;;22.74;99.56
8416;BME280;4245;42.120;24.732;2022-08-16T04:14:35;98753.03;;;22.75;98.36
8416;BME280;4245;42.120;24.732;2022-08-16T04:17:02;98750.13;;;22.77;97.50
8416;BME280;4245;42.120;24.732;2022-08-16T04:19:29;98768.28;;;22.83;95.84
8416;BME280;4245;42.120;24.732;2022-08-16T04:21:56;98770.59;;;22.86;95.64
8416;BME280;4245;42.120;24.732;2022-08-16T04:24:23;98770.94;;;23.04;94.54
8416;BME280;4245;42.120;24.732;2022-08-16T04:26:50;98759.50;;;23.09;93.94
8416;BME280;4245;42.120;24.732;2022-08-16T04:29:18;98764.56;;;23.18;92.38
8416;BME280;4245;42.120;24.732;2022-08-16T04:31:46;98755.41;;;23.26;89.77
8416;BME280;4245;42.120;24.732;2022-08-16T04:34:13;98763.38;;;23.34;89.72
8416;BME280;4245;42.120;24.732;2022-08-16T04:36:40;98764.25;;;23.41;88.73
8416;BME280;4245;42.120;24.732;2022-08-16T04:39:06;98769.00;;;23.32;90.85
8416;BME280;4245;42.120;24.732;2022-08-16T04:41:33;98769.38;;;23.29;92.97
8416;BME280;4245;42.120;24.732;2022-08-16T04:44:00;98783.06;;;23.49;90.99
8416;BME280;4245;42.120;24.732;2022-08-16T04:46:28;98782.47;;;23.54;90.88
8416;BME280;4245;42.120;24.732;2022-08-16T04:48:55;98787.31;;;23.65;91.12
8416;BME280;4245;42.120;24.732;2022-08-16T04:51:22;98788.22;;;23.85;90.67
8416;BME280;4245;42.120;24.732;2022-08-16T04:53:49;98792.84;;;23.98;89.31
8416;BME280;4245;42.120;24.732;2022-08-16T04:56:18;98787.00;;;24.07;88.11
8416;BME280;4245;42.120;24.732;2022-08-16T04:58:45;98777.28;;;24.19;87.13
8416;BME280;4245;42.120;24.732;2022-08-16T05:01:12;98774.78;;;24.24;86.62
8416;BME280;4245;42.120;24.732;2022-08-16T05:03:40;98778.31;;;24.45;84.73
8416;BME280;4245;42.120;24.732;2022-08-16T05:06:07;98770.38;;;24.37;83.84
8416;BME280;4245;42.120;24.732;2022-08-16T05:08:34;98767.28;;;24.40;84.71
8416;BME280;4245;42.120;24.732;2022-08-16T05:11:04;98774.97;;;24.56;83.31
8416;BME280;4245;42.120;24.732;2022-08-16T05:13:33;98779.38;;;24.57;82.63
8416;BME280;4245;42.120;24.732;2022-08-16T05:16:01;98783.97;;;24.37;84.19
8416;BME280;4245;42.120;24.732;2022-08-16T05:18:28;98790.44;;;24.62;82.35
8416;BME280;4245;42.120;24.732;2022-08-16T05:20:57;98787.94;;;24.80;81.24
8416;BME280;4245;42.120;24.732;2022-08-16T05:23:24;98784.63;;;24.91;81.56
8416;BME280;4245;42.120;24.732;2022-08-16T05:25:50;98777.03;;;25.13;77.99
8416;BME280;4245;42.120;24.732;2022-08-16T05:28:17;98782.84;;;25.30;76.32
8416;BME280;4245;42.120;24.732;2022-08-16T05:30:45;98783.25;;;25.33;76.01
8416;BME280;4245;42.120;24.732;2022-08-16T05:33:12;98772.97;;;25.55;74.60
8416;BME280;4245;42.120;24.732;2022-08-16T05:35:39;98775.19;;;25.71;74.21
8416;BME280;4245;42.120;24.732;2022-08-16T05:38:07;98771.69;;;25.95;72.99
8416;BME280;4245;42.120;24.732;2022-08-16T05:40:34;98780.97;;;26.19;71.25
8416;BME280;4245;42.120;24.732;2022-08-16T05:43:00;98771.38;;;26.48;69.55
8416;BME280;4245;42.120;24.732;2022-08-16T05:45:27;98761.81;;;26.64;68.70
8416;BME280;4245;42.120;24.732;2022-08-16T05:47:55;98773.22;;;26.79;67.67
8416;BME280;4245;42.120;24.732;2022-08-16T05:50:22;98777.50;;;26.93;67.22
8416;BME280;4245;42.120;24.732;2022-08-16T05:52:49;98787.91;;;27.21;65.97
8416;BME280;4245;42.120;24.732;2022-08-16T05:55:18;98789.53;;;27.29;65.38
8416;BME280;4245;42.120;24.732;2022-08-16T05:57:45;98794.53;;;27.50;64.42
8416;BME280;4245;42.120;24.732;2022-08-16T06:00:13;98789.63;;;27.58;64.34
8416;BME280;4245;42.120;24.732;2022-08-16T06:02:40;98782.66;;;27.62;63.82
8416;BME280;4245;42.120;24.732;2022-08-16T06:05:09;98789.25;;;27.73;63.26
8416;BME280;4245;42.120;24.732;2022-08-16T06:07:36;98779.53;;;27.77;63.28
8416;BME280;4245;42.120;24.732;2022-08-16T06:10:04;98771.06;;;27.97;61.61
8416;BME280;4245;42.120;24.732;2022-08-16T06:12:32;98775.50;;;28.09;60.38
8416;BME280;4245;42.120;24.732;2022-08-16T06:15:01;98786.69;;;28.49;57.30
8416;BME280;4245;42.120;24.732;2022-08-16T06:17:28;98770.19;;;28.56;57.50
8416;BME280;4245;42.120;24.732;2022-08-16T06:19:56;98779.84;;;28.82;54.54
8416;BME280;4245;42.120;24.732;2022-08-16T06:22:22;98781.03;;;28.86;55.78
8416;BME280;4245;42.120;24.732;2022-08-16T06:24:49;98796.03;;;29.18;53.80
8416;BME280;4245;42.120;24.732;2022-08-16T06:27:16;98791.25;;;29.25;52.12
8416;BME280;4245;42.120;24.732;2022-08-16T06:29:44;98790.94;;;29.33;51.38
8416;BME280;4245;42.120;24.732;2022-08-16T06:32:11;98791.75;;;29.46;50.08
8416;BME280;4245;42.120;24.732;2022-08-16T06:34:38;98779.84;;;29.28;50.33
8416;BME280;4245;42.120;24.732;2022-08-16T06:37:05;98773.94;;;29.08;51.81
8416;BME280;4245;42.120;24.732;2022-08-16T06:39:32;98773.69;;;29.33;50.46
8416;BME280;4245;42.120;24.732;2022-08-16T06:41:59;98768.28;;;29.50;50.74
8416;BME280;4245;42.120;24.732;2022-08-16T06:47:04;98764.75;;;29.89;48.87
8416;BME280;4245;42.120;24.732;2022-08-16T06:49:31;98764.19;;;29.75;49.79
8416;BME280;4245;42.120;24.732;2022-08-16T06:51:58;98756.31;;;29.91;49.21
8416;BME280;4245;42.120;24.732;2022-08-16T06:54:25;98756.81;;;30.04;48.09
8416;BME280;4245;42.120;24.732;2022-08-16T06:56:51;98762.41;;;30.09;48.28
8416;BME280;4245;42.120;24.732;2022-08-16T06:59:19;98758.78;;;30.20;47.73
8416;BME280;4245;42.120;24.732;2022-08-16T07:01:45;98753.41;;;30.26;47.37
8416;BME280;4245;42.120;24.732;2022-08-16T07:04:14;98753.44;;;30.31;47.69
8416;BME280;4245;42.120;24.732;2022-08-16T07:06:41;98741.47;;;30.65;46.94
8416;BME280;4245;42.120;24.732;2022-08-16T07:09:08;98752.78;;;31.02;46.10
8416;BME280;4245;42.120;24.732;2022-08-16T07:11:36;98757.81;;;31.10;43.76
8416;BME280;4245;42.120;24.732;2022-08-16T07:14:03;98760.31;;;31.12;44.83
8416;BME280;4245;42.120;24.732;2022-08-16T07:16:30;98751.00;;;31.34;44.50
8416;BME280;4245;42.120;24.732;2022-08-16T07:18:57;98746.03;;;31.53;43.62
8416;BME280;4245;42.120;24.732;2022-08-16T07:21:25;98740.16;;;31.88;41.86
8416;BME280;4245;42.120;24.732;2022-08-16T07:23:52;98747.16;;;31.74;42.82
8416;BME280;4245;42.120;24.732;2022-08-16T07:26:21;98748.53;;;31.98;41.19
8416;BME280;4245;42.120;24.732;2022-08-16T07:28:48;98747.31;;;31.89;41.83
8416;BME280;4245;42.120;24.732;2022-08-16T07:31:16;98748.38;;;32.37;41.12
8416;BME280;4245;42.120;24.732;2022-08-16T07:33:44;98748.38;;;32.68;40.49
8416;BME280;4245;42.120;24.732;2022-08-16T07:36:12;98752.91;;;32.85;39.35
8416;BME280;4245;42.120;24.732;2022-08-16T07:38:41;98751.69;;;33.07;39.18
8416;BME280;4245;42.120;24.732;2022-08-16T07:41:08;98758.22;;;33.33;38.68
8416;BME280;4245;42.120;24.732;2022-08-16T07:43:35;98770.44;;;33.57;38.24
8416;BME280;4245;42.120;24.732;2022-08-16T07:46:02;98766.13;;;33.72;37.66
8416;BME280;4245;42.120;24.732;2022-08-16T07:48:29;98763.00;;;33.58;38.14
8416;BME280;4245;42.120;24.732;2022-08-16T07:50:58;98765.50;;;33.59;38.22
8416;BME280;4245;42.120;24.732;2022-08-16T07:53:26;98762.19;;;33.62;37.96
8416;BME280;4245;42.120;24.732;2022-08-16T07:55:55;98764.31;;;34.02;37.17
8416;BME280;4245;42.120;24.732;2022-08-16T07:58:25;98768.19;;;34.17;36.87
8416;BME280;4245;42.120;24.732;2022-08-16T08:00:52;98763.28;;;34.49;36.45
8416;BME280;4245;42.120;24.732;2022-08-16T08:03:19;98758.06;;;34.68;36.26
8416;BME280;4245;42.120;24.732;2022-08-16T08:05:46;98758.31;;;35.07;36.00
8416;BME280;4245;42.120;24.732;2022-08-16T08:08:13;98761.03;;;35.37;34.60
8416;BME280;4245;42.120;24.732;2022-08-16T08:10:40;98765.72;;;35.42;34.99
8416;BME280;4245;42.120;24.732;2022-08-16T08:13:08;98760.09;;;35.77;34.50
8416;BME280;4245;42.120;24.732;2022-08-16T08:15:35;98770.97;;;36.02;32.91
8416;BME280;4245;42.120;24.732;2022-08-16T08:18:03;98767.66;;;36.05;33.08
8416;BME280;4245;42.120;24.732;2022-08-16T08:20:30;98768.75;;;36.14;32.92
8416;BME280;4245;42.120;24.732;2022-08-16T08:22:58;98764.34;;;36.47;32.67
8416;BME280;4245;42.120;24.732;2022-08-16T08:25:25;98767.19;;;36.76;31.54
8416;BME280;4245;42.120;24.732;2022-08-16T08:27:52;98762.06;;;36.65;31.05
8416;BME280;4245;42.120;24.732;2022-08-16T08:30:21;98757.41;;;36.89;31.32
8416;BME280;4245;42.120;24.732;2022-08-16T08:32:48;98759.03;;;36.56;30.71
8416;BME280;4245;42.120;24.732;2022-08-16T08:35:15;98757.94;;;36.08;31.04
8416;BME280;4245;42.120;24.732;2022-08-16T08:37:42;98756.25;;;36.12;30.82
8416;BME280;4245;42.120;24.732;2022-08-16T08:40:10;98750.66;;;35.78;31.20
8416;BME280;4245;42.120;24.732;2022-08-16T08:42:38;98751.88;;;36.11;31.19
8416;BME280;4245;42.120;24.732;2022-08-16T08:45:09;98744.63;;;36.59;29.86
8416;BME280;4245;42.120;24.732;2022-08-16T08:47:38;98744.75;;;36.78;29.90
8416;BME280;4245;42.120;24.732;2022-08-16T08:50:07;98746.56;;;36.64;29.62
8416;BME280;4245;42.120;24.732;2022-08-16T08:52:34;98753.59;;;37.09;28.78
8416;BME280;4245;42.120;24.732;2022-08-16T08:55:03;98750.72;;;36.61;28.79
8416;BME280;4245;42.120;24.732;2022-08-16T08:57:31;98738.53;;;36.57;28.58
8416;BME280;4245;42.120;24.732;2022-08-16T08:59:57;98739.91;;;36.93;28.69
8416;BME280;4245;42.120;24.732;2022-08-16T09:02:24;98746.91;;;37.15;28.49
8416;BME280;4245;42.120;24.732;2022-08-16T09:04:53;98743.72;;;37.50;28.32
8416;BME280;4245;42.120;24.732;2022-08-16T09:07:19;98751.16;;;37.78;27.80
8416;BME280;4245;42.120;24.732;2022-08-16T09:09:46;98744.97;;;37.39;28.71
8416;BME280;4245;42.120;24.732;2022-08-16T09:12:13;98750.44;;;37.20;29.12
8416;BME280;4245;42.120;24.732;2022-08-16T09:14:43;98750.22;;;37.17;28.95
8416;BME280;4245;42.120;24.732;2022-08-16T09:17:10;98744.50;;;37.32;29.08
8416;BME280;4245;42.120;24.732;2022-08-16T09:19:38;98752.78;;;37.61;28.54
8416;BME280;4245;42.120;24.732;2022-08-16T09:22:07;98747.84;;;37.53;28.25
8416;BME280;4245;42.120;24.732;2022-08-16T09:24:35;98753.16;;;37.25;28.96
8416;BME280;4245;42.120;24.732;2022-08-16T09:27:02;98747.69;;;37.44;28.58
8416;BME280;4245;42.120;24.732;2022-08-16T09:29:29;98751.16;;;37.97;28.66
8416;BME280;4245;42.120;24.732;2022-08-16T09:31:57;98752.22;;;38.44;27.94
8416;BME280;4245;42.120;24.732;2022-08-16T09:34:24;98745.25;;;38.60;27.02
8416;BME280;4245;42.120;24.732;2022-08-16T09:36:51;98745.56;;;38.40;27.54
8416;BME280;4245;42.120;24.732;2022-08-16T09:39:24;98737.19;;;38.26;27.12
8416;BME280;4245;42.120;24.732;2022-08-16T09:41:51;98736.91;;;38.46;26.89
8416;BME280;4245;42.120;24.732;2022-08-16T09:44:21;98730.97;;;38.34;27.52
8416;BME280;4245;42.120;24.732;2022-08-16T09:46:49;98730.50;;;38.27;27.65
8416;BME280;4245;42.120;24.732;2022-08-16T09:49:17;98735.09;;;38.18;26.40
8416;BME280;4245;42.120;24.732;2022-08-16T09:51:44;98727.28;;;37.35;27.87
8416;BME280;4245;42.120;24.732;2022-08-16T09:54:10;98731.00;;;37.49;27.26
8416;BME280;4245;42.120;24.732;2022-08-16T09:56:40;98718.44;;;37.09;28.15
8416;BME280;4245;42.120;24.732;2022-08-16T09:59:08;98726.53;;;36.38;29.22
8416;BME280;4245;42.120;24.732;2022-08-16T10:01:36;98719.09;;;35.89;28.89
8416;BME280;4245;42.120;24.732;2022-08-16T10:04:04;98710.66;;;36.09;28.92
8416;BME280;4245;42.120;24.732;2022-08-16T10:06:32;98705.22;;;37.01;27.25
8416;BME280;4245;42.120;24.732;2022-08-16T10:08:59;98709.84;;;37.58;25.83
8416;BME280;4245;42.120;24.732;2022-08-16T10:11:25;98707.69;;;38.30;25.79
8416;BME280;4245;42.120;24.732;2022-08-16T10:14:11;98713.84;;;38.78;25.33
8416;BME280;4245;42.120;24.732;2022-08-16T10:16:38;98708.59;;;38.63;24.58
8416;BME280;4245;42.120;24.732;2022-08-16T10:19:05;98707.41;;;38.83;25.06
8416;BME280;4245;42.120;24.732;2022-08-16T10:21:32;98703.13;;;39.04;24.97
8416;BME280;4245;42.120;24.732;2022-08-16T10:24:00;98706.97;;;38.76;24.81
8416;BME280;4245;42.120;24.732;2022-08-16T10:26:27;98695.72;;;38.16;25.35
8416;BME280;4245;42.120;24.732;2022-08-16T10:28:57;98695.91;;;38.57;25.08
8416;BME280;4245;42.120;24.732;2022-08-16T10:31:26;98687.81;;;39.06;24.48
8416;BME280;4245;42.120;24.732;2022-08-16T10:33:53;98697.28;;;39.60;24.57
8416;BME280;4245;42.120;24.732;2022-08-16T10:36:20;98694.16;;;39.89;23.76
8416;BME280;4245;42.120;24.732;2022-08-16T10:38:47;98698.22;;;40.05;23.60
8416;BME280;4245;42.120;24.732;2022-08-16T10:41:14;98696.03;;;39.80;23.72
8416;BME280;4245;42.120;24.732;2022-08-16T10:43:41;98688.25;;;39.41;24.03
8416;BME280;4245;42.120;24.732;2022-08-16T10:46:12;98689.03;;;39.14;23.91
8416;BME280;4245;42.120;24.732;2022-08-16T10:48:42;98699.44;;;38.62;24.84
8416;BME280;4245;42.120;24.732;2022-08-16T10:51:10;98696.41;;;37.89;26.42
8416;BME280;4245;42.120;24.732;2022-08-16T10:53:37;98694.97;;;38.48;26.31
8416;BME280;4245;42.120;24.732;2022-08-16T10:56:07;98682.16;;;39.39;25.02
8416;BME280;4245;42.120;24.732;2022-08-16T10:58:34;98689.41;;;40.48;24.05
8416;BME280;4245;42.120;24.732;2022-08-16T11:01:02;98696.25;;;41.26;23.29
8416;BME280;4245;42.120;24.732;2022-08-16T11:03:29;98688.84;;;41.69;22.51
8416;BME280;4245;42.120;24.732;2022-08-16T11:05:58;98699.47;;;41.50;22.78
8416;BME280;4245;42.120;24.732;2022-08-16T11:08:24;98692.47;;;41.21;22.92
8416;BME280;4245;42.120;24.732;2022-08-16T11:10:51;98697.63;;;41.37;22.67
8416;BME280;4245;42.120;24.732;2022-08-16T11:13:20;98691.38;;;39.89;23.60
8416;BME280;4245;42.120;24.732;2022-08-16T11:15:47;98687.19;;;39.23;24.38
8416;BME280;4245;42.120;24.732;2022-08-16T11:18:14;98696.88;;;39.26;24.18
8416;BME280;4245;42.120;24.732;2022-08-16T11:20:42;98687.06;;;38.55;25.04
8416;BME280;4245;42.120;24.732;2022-08-16T11:23:11;98681.03;;;38.34;25.19
8416;BME280;4245;42.120;24.732;2022-08-16T11:25:38;98674.13;;;39.37;24.56
8416;BME280;4245;42.120;24.732;2022-08-16T11:28:05;98672.72;;;40.25;23.78
8416;BME280;4245;42.120;24.732;2022-08-16T11:30:32;98674.13;;;39.37;24.38
8416;BME280;4245;42.120;24.732;2022-08-16T11:32:59;98678.00;;;39.77;24.46
8416;BME280;4245;42.120;24.732;2022-08-16T11:35:29;98672.03;;;40.95;23.36
8416;BME280;4245;42.120;24.732;2022-08-16T11:37:58;98673.28;;;41.68;21.83
8416;BME280;4245;42.120;24.732;2022-08-16T11:40:30;98673.97;;;40.86;21.78
8416;BME280;4245;42.120;24.732;2022-08-16T11:42:58;98667.28;;;40.96;21.83
8416;BME280;4245;42.120;24.732;2022-08-16T11:45:24;98663.84;;;40.99;21.81
8416;BME280;4245;42.120;24.732;2022-08-16T11:47:51;98672.50;;;40.97;21.85
8416;BME280;4245;42.120;24.732;2022-08-16T11:50:20;98666.81;;;40.49;22.16
8416;BME280;4245;42.120;24.732;2022-08-16T11:52:48;98663.91;;;40.54;22.70
8416;BME280;4245;42.120;24.732;2022-08-16T11:55:16;98667.94;;;41.32;21.73
8416;BME280;4245;42.120;24.732;2022-08-16T11:57:44;98672.53;;;42.11;21.14
8416;BME280;4245;42.120;24.732;2022-08-16T12:00:13;98667.84;;;42.66;20.21
8416;BME280;4245;42.120;24.732;2022-08-16T12:02:40;98658.16;;;43.27;19.72
8416;BME280;4245;42.120;24.732;2022-08-16T12:05:09;98654.16;;;43.66;19.03
8416;BME280;4245;42.120;24.732;2022-08-16T12:07:36;98651.91;;;43.81;19.52
8416;BME280;4245;42.120;24.732;2022-08-16T12:10:05;98653.25;;;43.16;20.50
8416;BME280;4245;42.120;24.732;2022-08-16T12:12:32;98647.81;;;43.49;19.62
8416;BME280;4245;42.120;24.732;2022-08-16T12:15:00;98640.00;;;43.63;19.69
8416;BME280;4245;42.120;24.732;2022-08-16T12:17:28;98637.34;;;43.66;19.19
8416;BME280;4245;42.120;24.732;2022-08-16T12:19:55;98633.56;;;43.62;18.98
8416;BME280;4245;42.120;24.732;2022-08-16T12:22:22;98630.38;;;43.43;19.15
8416;BME280;4245;42.120;24.732;2022-08-16T12:24:50;98636.38;;;43.62;19.23
8416;BME280;4245;42.120;24.732;2022-08-16T12:27:18;98630.38;;;43.72;18.75
8416;BME280;4245;42.120;24.732;2022-08-16T12:29:45;98616.31;;;44.23;18.92
8416;BME280;4245;42.120;24.732;2022-08-16T12:32:13;98622.13;;;43.97;18.54
8416;BME280;4245;42.120;24.732;2022-08-16T12:34:40;98620.66;;;43.99;18.75
8416;BME280;4245;42.120;24.732;2022-08-16T12:37:07;98601.41;;;44.31;18.62
8416;BME280;4245;42.120;24.732;2022-08-16T12:39:34;98618.75;;;44.57;18.63
8416;BME280;4245;42.120;24.732;2022-08-16T12:42:01;98621.19;;;44.46;18.70
8416;BME280;4245;42.120;24.732;2022-08-16T12:44:28;98622.38;;;44.57;18.55
8416;BME280;4245;42.120;24.732;2022-08-16T12:46:55;98627.59;;;44.92;17.69
8416;BME280;4245;42.120;24.732;2022-08-16T12:49:41;98614.00;;;43.83;18.11
8416;BME280;4245;42.120;24.732;2022-08-16T12:52:08;98603.91;;;43.49;19.22
8416;BME280;4245;42.120;24.732;2022-08-16T12:54:35;98613.47;;;44.10;18.46
8416;BME280;4245;42.120;24.732;2022-08-16T12:57:04;98605.19;;;44.47;18.24
8416;BME280;4245;42.120;24.732;2022-08-16T12:59:31;98609.72;;;44.96;17.86
8416;BME280;4245;42.120;24.732;2022-08-16T13:01:59;98602.59;;;44.87;17.78
8416;BME280;4245;42.120;24.732;2022-08-16T13:04:27;98602.97;;;43.87;18.98
8416;BME280;4245;42.120;24.732;2022-08-16T13:06:56;98606.41;;;42.75;19.58
8416;BME280;4245;42.120;24.732;2022-08-16T13:09:24;98605.22;;;41.78;20.53
8416;BME280;4245;42.120;24.732;2022-08-16T13:11:56;98593.63;;;41.28;20.88
8416;BME280;4245;42.120;24.732;2022-08-16T13:14:28;98586.66;;;41.47;20.73
8416;BME280;4245;42.120;24.732;2022-08-16T13:16:57;98589.09;;;41.83;20.26